sensor_id;sensor_type;location;lat;lon;timestamp;temperature;humidity
37086;DHT22;23001;45.952;12.676;2022-12-07T02:09:53;3.90;99.90
37086;DHT22;23001;45.952;12.676;2022-12-07T02:12:19;3.80;99.90
37086;DHT22;23001;45.952;12.676;2022-12-07T02:14:45;3.80;99.90
37086;DHT22;23001;45.952;12.676;2022-12-07T02:20:37;3.90;99.90
37086;DHT22;23001;45.952;12.676;2022-12-07T02:26:17;3.90;99.90
37086;DHT22;23001;45.952;12.676;2022-12-07T02:43:29;3.70;99.90
37086;DHT22;23001;45.952;12.676;2022-12-07T02:46:01;3.70;99.90
37086;DHT22;23001;45.952;12.676;2022-12-07T02:48:56;3.80;99.90
37086;DHT22;23001;45.952;12.676;2022-12-07T02:51:25;3.80;99.90
37086;DHT22;23001;45.952;12.676;2022-12-07T02:53:51;3.90;99.90
37086;DHT22;23001;45.952;12.676;2022-12-07T02:58:50;3.90;99.90
37086;DHT22;23001;45.952;12.676;2022-12-07T03:03:48;4.00;99.90
37086;DHT22;23001;45.952;12.676;2022-12-07T03:06:29;4.00;99.90
37086;DHT22;23001;45.952;12.676;2022-12-07T03:11:26;3.90;99.90
37086;DHT22;23001;45.952;12.676;2022-12-07T03:16:55;3.80;99.90
37086;DHT22;23001;45.952;12.676;2022-12-07T03:19:21;3.90;99.90
37086;DHT22;23001;45.952;12.676;2022-12-07T03:21:58;3.80;99.90
37086;DHT22;23001;45.952;12.676;2022-12-07T03:24:42;3.80;99.90
37086;DHT22;23001;45.952;12.676;2022-12-07T03:27:16;3.70;99.90
37086;DHT22;23001;45.952;12.676;2022-12-07T03:29:45;3.70;99.90
37086;DHT22;23001;45.952;12.676;2022-12-07T03:32:24;3.70;99.90
37086;DHT22;23001;45.952;12.676;2022-12-07T03:34:56;3.70;99.90
37086;DHT22;23001;45.952;12.676;2022-12-07T03:37:26;3.80;99.90
37086;DHT22;23001;45.952;12.676;2022-12-07T03:42:34;3.80;99.90
37086;DHT22;23001;45.952;12.676;2022-12-07T03:45:06;3.80;99.90
37086;DHT22;23001;45.952;12.676;2022-12-07T03:50:09;3.70;99.90
37086;DHT22;23001;45.952;12.676;2022-12-07T03:52:39;3.70;99.90
37086;DHT22;23001;45.952;12.676;2022-12-07T03:55:09;3.70;99.90
37086;DHT22;23001;45.952;12.676;2022-12-07T03:57:37;3.60;99.90
37086;DHT22;23001;45.952;12.676;2022-12-07T04:00:05;3.50;99.90
37086;DHT22;23001;45.952;12.676;2022-12-07T04:02:32;3.60;99.90
37086;DHT22;23001;45.952;12.676;2022-12-07T04:04:58;3.60;99.90
37086;DHT22;23001;45.952;12.676;2022-12-07T04:07:23;3.70;99.90
37086;DHT22;23001;45.952;12.676;2022-12-07T04:09:49;3.70;99.90
37086;DHT22;23001;45.952;12.676;2022-12-07T04:12:14;3.60;99.90
37086;DHT22;23001;45.952;12.676;2022-12-07T04:14:40;3.60;99.90
37086;DHT22;23001;45.952;12.676;2022-12-07T04:17:06;3.60;99.90
37086;DHT22;23001;45.952;12.676;2022-12-07T04:19:32;3.60;99.90
37086;DHT22;23001;45.952;12.676;2022-12-07T04:21:59;3.50;99.90
37086;DHT22;23001;45.952;12.676;2022-12-07T04:24:25;3.50;99.90
37086;DHT22;23001;45.952;12.676;2022-12-07T04:26:51;3.50;99.90
37086;DHT22;23001;45.952;12.676;2022-12-07T04:29:17;3.50;99.90
37086;DHT22;23001;45.952;12.676;2022-12-07T04:31:43;3.50;99.90
37086;DHT22;23001;45.952;12.676;2022-12-07T04:34:10;3.50;99.90
37086;DHT22;23001;45.952;12.676;2022-12-07T04:36:35;3.50;99.90
37086;DHT22;23001;45.952;12.676;2022-12-07T04:39:01;3.40;99.90
37086;DHT22;23001;45.952;12.676;2022-12-07T04:41:27;3.50;99.90
37086;DHT22;23001;45.952;12.676;2022-12-07T04:43:53;3.50;99.90
37086;DHT22;23001;45.952;12.676;2022-12-07T04:46:19;3.40;99.90
37086;DHT22;23001;45.952;12.676;2022-12-07T04:48:45;3.40;99.90
37086;DHT22;23001;45.952;12.676;2022-12-07T04:51:10;3.40;99.90
37086;DHT22;23001;45.952;12.676;2022-12-07T04:53:36;3.20;99.90
37086;DHT22;23001;45.952;12.676;2022-12-07T04:56:02;3.30;99.90
37086;DHT22;23001;45.952;12.676;2022-12-07T04:58:27;3.30;99.90
37086;DHT22;23001;45.952;12.676;2022-12-07T05:00:53;3.30;99.90
37086;DHT22;23001;45.952;12.676;2022-12-07T05:03:19;3.30;99.90
37086;DHT22;23001;45.952;12.676;2022-12-07T05:05:44;3.40;99.90
37086;DHT22;23001;45.952;12.676;2022-12-07T05:08:10;3.40;99.90
37086;DHT22;23001;45.952;12.676;2022-12-07T05:10:39;3.30;99.90
37086;DHT22;23001;45.952;12.676;2022-12-07T05:13:04;3.40;99.90
37086;DHT22;23001;45.952;12.676;2022-12-07T05:15:30;3.40;99.90
37086;DHT22;23001;45.952;12.676;2022-12-07T05:20:59;3.50;99.90
37086;DHT22;23001;45.952;12.676;2022-12-07T06:50:43;3.20;99.90
37086;DHT22;23001;45.952;12.676;2022-12-07T06:59:20;3.40;99.90
37086;DHT22;23001;45.952;12.676;2022-12-07T07:01:46;3.40;99.90
37086;DHT22;23001;45.952;12.676;2022-12-07T07:07:09;3.30;99.90
37086;DHT22;23001;45.952;12.676;2022-12-07T07:09:35;3.40;99.90
37086;DHT22;23001;45.952;12.676;2022-12-07T07:18:12;3.30;99.90
37086;DHT22;23001;45.952;12.676;2022-12-07T07:20:37;3.40;99.90
37086;DHT22;23001;45.952;12.676;2022-12-07T07:25:56;3.60;99.90
37086;DHT22;23001;45.952;12.676;2022-12-07T07:28:22;3.70;99.90
37086;DHT22;23001;45.952;12.676;2022-12-07T08:11:37;5.00;99.90
37086;DHT22;23001;45.952;12.676;2022-12-07T08:14:03;5.10;99.90
37086;DHT22;23001;45.952;12.676;2022-12-07T08:16:29;5.10;99.90
37086;DHT22;23001;45.952;12.676;2022-12-07T08:59:27;5.70;99.90
37086;DHT22;23001;45.952;12.676;2022-12-07T09:01:53;5.70;99.90
37086;DHT22;23001;45.952;12.676;2022-12-07T09:04:18;5.70;99.90
37086;DHT22;23001;45.952;12.676;2022-12-07T09:06:45;5.70;99.90
37086;DHT22;23001;45.952;12.676;2022-12-07T09:09:11;5.70;99.90
37086;DHT22;23001;45.952;12.676;2022-12-07T09:11:38;5.70;99.90
37086;DHT22;23001;45.952;12.676;2022-12-07T09:14:04;5.80;99.90
37086;DHT22;23001;45.952;12.676;2022-12-07T09:16:30;5.80;99.90
37086;DHT22;23001;45.952;12.676;2022-12-07T09:18:56;5.90;99.90
37086;DHT22;23001;45.952;12.676;2022-12-07T09:21:22;6.00;99.90
37086;DHT22;23001;45.952;12.676;2022-12-07T09:23:48;6.00;99.90
37086;DHT22;23001;45.952;12.676;2022-12-07T09:26:13;6.20;99.90
37086;DHT22;23001;45.952;12.676;2022-12-07T09:28:39;6.20;99.90
37086;DHT22;23001;45.952;12.676;2022-12-07T09:31:05;6.20;99.90
37086;DHT22;23001;45.952;12.676;2022-12-07T09:33:31;6.30;99.90
37086;DHT22;23001;45.952;12.676;2022-12-07T09:35:58;6.40;99.90
37086;DHT22;23001;45.952;12.676;2022-12-07T09:38:26;6.40;99.90
37086;DHT22;23001;45.952;12.676;2022-12-07T09:40:53;6.60;99.90
37086;DHT22;23001;45.952;12.676;2022-12-07T09:43:24;6.60;99.90
37086;DHT22;23001;45.952;12.676;2022-12-07T09:45:53;6.60;99.90
37086;DHT22;23001;45.952;12.676;2022-12-07T09:48:25;6.80;99.90
37086;DHT22;23001;45.952;12.676;2022-12-07T09:51:01;6.90;99.90
37086;DHT22;23001;45.952;12.676;2022-12-07T09:53:32;6.90;99.90
37086;DHT22;23001;45.952;12.676;2022-12-07T09:55:59;6.90;99.90
37086;DHT22;23001;45.952;12.676;2022-12-07T09:58:25;6.90;99.90
37086;DHT22;23001;45.952;12.676;2022-12-07T10:00:53;7.00;99.90
37086;DHT22;23001;45.952;12.676;2022-12-07T10:03:19;7.20;99.90
37086;DHT22;23001;45.952;12.676;2022-12-07T10:05:46;7.20;99.90
37086;DHT22;23001;45.952;12.676;2022-12-07T10:08:13;7.30;99.90
37086;DHT22;23001;45.952;12.676;2022-12-07T10:10:41;7.30;99.90
37086;DHT22;23001;45.952;12.676;2022-12-07T10:13:10;7.40;99.90
37086;DHT22;23001;45.952;12.676;2022-12-07T10:18:41;7.70;99.90
37086;DHT22;23001;45.952;12.676;2022-12-07T10:23:33;7.80;99.90
37086;DHT22;23001;45.952;12.676;2022-12-07T10:25:59;7.70;99.90
37086;DHT22;23001;45.952;12.676;2022-12-07T10:28:33;7.60;99.90
37086;DHT22;23001;45.952;12.676;2022-12-07T10:30:59;7.70;99.90
37086;DHT22;23001;45.952;12.676;2022-12-07T10:35:53;7.80;99.90
37086;DHT22;23001;45.952;12.676;2022-12-07T10:38:19;7.90;99.90
37086;DHT22;23001;45.952;12.676;2022-12-07T10:40:44;8.00;99.90
37086;DHT22;23001;45.952;12.676;2022-12-07T10:46:22;8.10;99.90
37086;DHT22;23001;45.952;12.676;2022-12-07T10:48:36;8.20;99.90
37086;DHT22;23001;45.952;12.676;2022-12-07T11:04:29;8.40;99.90
37086;DHT22;23001;45.952;12.676;2022-12-07T11:20:01;8.60;99.90
37086;DHT22;23001;45.952;12.676;2022-12-07T11:22:36;8.60;99.90
37086;DHT22;23001;45.952;12.676;2022-12-07T11:28:15;8.80;99.90
37086;DHT22;23001;45.952;12.676;2022-12-07T11:33:45;9.00;99.90
37086;DHT22;23001;45.952;12.676;2022-12-07T11:38:45;9.00;99.90
37086;DHT22;23001;45.952;12.676;2022-12-07T11:41:12;9.00;99.90
37086;DHT22;23001;45.952;12.676;2022-12-07T11:43:50;9.00;99.90
37086;DHT22;23001;45.952;12.676;2022-12-07T11:46:16;9.10;99.90
37086;DHT22;23001;45.952;12.676;2022-12-07T11:49:07;9.10;99.90
37086;DHT22;23001;45.952;12.676;2022-12-07T11:51:28;9.10;99.90
37086;DHT22;23001;45.952;12.676;2022-12-07T11:53:56;9.20;99.90
37086;DHT22;23001;45.952;12.676;2022-12-07T11:56:23;9.20;99.90
37086;DHT22;23001;45.952;12.676;2022-12-07T11:59:27;9.20;99.90
37086;DHT22;23001;45.952;12.676;2022-12-07T12:04:24;9.20;99.90
37086;DHT22;23001;45.952;12.676;2022-12-07T12:06:51;9.30;99.90
37086;DHT22;23001;45.952;12.676;2022-12-07T12:09:17;9.40;99.90
37086;DHT22;23001;45.952;12.676;2022-12-07T12:19:25;9.30;99.90
37086;DHT22;23001;45.952;12.676;2022-12-07T12:22:15;9.30;99.90
37086;DHT22;23001;45.952;12.676;2022-12-07T12:24:42;9.40;99.90
37086;DHT22;23001;45.952;12.676;2022-12-07T12:27:09;9.40;99.90
37086;DHT22;23001;45.952;12.676;2022-12-07T12:29:36;9.50;99.90
37086;DHT22;23001;45.952;12.676;2022-12-07T12:32:06;9.50;99.90
37086;DHT22;23001;45.952;12.676;2022-12-07T12:42:45;9.60;99.90
37086;DHT22;23001;45.952;12.676;2022-12-07T12:47:54;9.60;99.90
37086;DHT22;23001;45.952;12.676;2022-12-07T12:52:57;9.70;99.90
37086;DHT22;23001;45.952;12.676;2022-12-07T12:55:43;9.70;99.90
37086;DHT22;23001;45.952;12.676;2022-12-07T13:00:43;9.70;99.90
37086;DHT22;23001;45.952;12.676;2022-12-07T13:03:20;9.70;99.90
37086;DHT22;23001;45.952;12.676;2022-12-07T13:05:47;9.60;99.90
37086;DHT22;23001;45.952;12.676;2022-12-07T13:08:20;9.60;99.90
37086;DHT22;23001;45.952;12.676;2022-12-07T13:10:47;9.50;99.90
37086;DHT22;23001;45.952;12.676;2022-12-07T13:20:48;9.50;99.90
37086;DHT22;23001;45.952;12.676;2022-12-07T13:23:16;9.70;99.90
37086;DHT22;23001;45.952;12.676;2022-12-07T13:28:37;9.80;99.90
37086;DHT22;23001;45.952;12.676;2022-12-07T13:33:41;9.80;99.90
37086;DHT22;23001;45.952;12.676;2022-12-07T13:36:12;9.70;99.90
37086;DHT22;23001;45.952;12.676;2022-12-07T13:38:40;9.80;99.90
37086;DHT22;23001;45.952;12.676;2022-12-07T13:41:14;9.80;99.90
37086;DHT22;23001;45.952;12.676;2022-12-07T13:43:44;9.70;99.90
37086;DHT22;23001;45.952;12.676;2022-12-07T13:46:11;9.50;99.90
37086;DHT22;23001;45.952;12.676;2022-12-07T13:48:46;9.60;99.90
37086;DHT22;23001;45.952;12.676;2022-12-07T13:51:19;9.60;99.90
37086;DHT22;23001;45.952;12.676;2022-12-07T13:53:55;9.60;99.90
37086;DHT22;23001;45.952;12.676;2022-12-07T13:56:22;9.60;99.90
37086;DHT22;23001;45.952;12.676;2022-12-07T13:58:48;9.70;99.90
37086;DHT22;23001;45.952;12.676;2022-12-07T14:01:13;9.70;99.90
37086;DHT22;23001;45.952;12.676;2022-12-07T14:03:39;9.60;99.90
37086;DHT22;23001;45.952;12.676;2022-12-07T14:06:24;9.60;99.90
37086;DHT22;23001;45.952;12.676;2022-12-07T14:15:01;9.50;99.90
37086;DHT22;23001;45.952;12.676;2022-12-07T14:17:27;9.50;99.90
37086;DHT22;23001;45.952;12.676;2022-12-07T14:20:03;9.50;99.90
37086;DHT22;23001;45.952;12.676;2022-12-07T14:22:34;9.40;99.90
37086;DHT22;23001;45.952;12.676;2022-12-07T14:27:38;9.50;99.90
37086;DHT22;23001;45.952;12.676;2022-12-07T14:30:15;9.30;99.90
37086;DHT22;23001;45.952;12.676;2022-12-07T14:32:40;9.30;99.90
37086;DHT22;23001;45.952;12.676;2022-12-07T14:35:12;9.10;99.90
37086;DHT22;23001;45.952;12.676;2022-12-07T14:37:41;9.10;99.90
37086;DHT22;23001;45.952;12.676;2022-12-07T14:40:09;9.00;99.90
37086;DHT22;23001;45.952;12.676;2022-12-07T14:42:37;8.90;99.90
37086;DHT22;23001;45.952;12.676;2022-12-07T14:45:03;8.80;99.90
37086;DHT22;23001;45.952;12.676;2022-12-07T14:47:29;8.80;99.90
37086;DHT22;23001;45.952;12.676;2022-12-07T14:49:55;8.80;99.90
37086;DHT22;23001;45.952;12.676;2022-12-07T14:55:13;8.60;99.90
37086;DHT22;23001;45.952;12.676;2022-12-07T14:57:39;8.60;99.90
37086;DHT22;23001;45.952;12.676;2022-12-07T15:00:05;8.50;99.90
37086;DHT22;23001;45.952;12.676;2022-12-07T15:02:30;8.40;99.90
37086;DHT22;23001;45.952;12.676;2022-12-07T15:04:56;8.30;99.90
37086;DHT22;23001;45.952;12.676;2022-12-07T15:07:22;8.20;99.90
37086;DHT22;23001;45.952;12.676;2022-12-07T15:10:18;8.10;99.90
37086;DHT22;23001;45.952;12.676;2022-12-07T15:12:44;8.00;99.90
37086;DHT22;23001;45.952;12.676;2022-12-07T15:15:10;8.00;99.90
37086;DHT22;23001;45.952;12.676;2022-12-07T15:17:36;8.00;99.90
37086;DHT22;23001;45.952;12.676;2022-12-07T15:20:02;8.00;99.90
37086;DHT22;23001;45.952;12.676;2022-12-07T15:22:31;7.90;99.90
37086;DHT22;23001;45.952;12.676;2022-12-07T15:43:12;7.40;99.90
37086;DHT22;23001;45.952;12.676;2022-12-07T15:45:57;7.30;99.90
37086;DHT22;23001;45.952;12.676;2022-12-07T15:48:23;7.30;99.90
37086;DHT22;23001;45.952;12.676;2022-12-07T15:50:49;7.20;99.90
37086;DHT22;23001;45.952;12.676;2022-12-07T15:53:14;7.20;99.90
37086;DHT22;23001;45.952;12.676;2022-12-07T15:55:40;7.10;99.90
37086;DHT22;23001;45.952;12.676;2022-12-07T15:58:11;7.00;99.90
37086;DHT22;23001;45.952;12.676;2022-12-07T16:00:37;6.90;99.90
37086;DHT22;23001;45.952;12.676;2022-12-07T16:03:02;7.00;99.90
37086;DHT22;23001;45.952;12.676;2022-12-07T16:05:28;6.90;99.90
37086;DHT22;23001;45.952;12.676;2022-12-07T16:07:54;6.90;99.90
37086;DHT22;23001;45.952;12.676;2022-12-07T16:10:19;6.80;99.90
37086;DHT22;23001;45.952;12.676;2022-12-07T16:12:45;6.70;99.90
37086;DHT22;23001;45.952;12.676;2022-12-07T16:15:11;6.80;99.90
37086;DHT22;23001;45.952;12.676;2022-12-07T16:17:36;6.70;99.90
37086;DHT22;23001;45.952;12.676;2022-12-07T16:20:03;6.70;99.90
37086;DHT22;23001;45.952;12.676;2022-12-07T16:22:28;6.80;99.90
37086;DHT22;23001;45.952;12.676;2022-12-07T16:24:55;6.70;99.90
37086;DHT22;23001;45.952;12.676;2022-12-07T16:27:20;6.70;99.90
37086;DHT22;23001;45.952;12.676;2022-12-07T16:29:46;6.70;99.90
37086;DHT22;23001;45.952;12.676;2022-12-07T16:32:12;6.70;99.90
37086;DHT22;23001;45.952;12.676;2022-12-07T16:34:38;6.60;99.90
37086;DHT22;23001;45.952;12.676;2022-12-07T16:37:04;6.50;99.90
37086;DHT22;23001;45.952;12.676;2022-12-07T16:39:30;6.50;99.90
37086;DHT22;23001;45.952;12.676;2022-12-07T16:41:55;6.50;99.90
37086;DHT22;23001;45.952;12.676;2022-12-07T16:44:21;6.50;99.90
37086;DHT22;23001;45.952;12.676;2022-12-07T16:46:46;6.50;99.90
37086;DHT22;23001;45.952;12.676;2022-12-07T16:49:15;6.50;99.90
37086;DHT22;23001;45.952;12.676;2022-12-07T16:51:41;6.50;99.90
37086;DHT22;23001;45.952;12.676;2022-12-07T16:54:11;6.40;99.90
37086;DHT22;23001;45.952;12.676;2022-12-07T16:56:37;6.30;99.90
37086;DHT22;23001;45.952;12.676;2022-12-07T16:59:02;6.30;99.90
37086;DHT22;23001;45.952;12.676;2022-12-07T17:01:28;6.40;99.90
37086;DHT22;23001;45.952;12.676;2022-12-07T17:03:54;6.50;99.90
37086;DHT22;23001;45.952;12.676;2022-12-07T17:06:24;6.40;99.90
37086;DHT22;23001;45.952;12.676;2022-12-07T17:08:51;6.50;99.90
37086;DHT22;23001;45.952;12.676;2022-12-07T17:11:17;6.40;99.90
37086;DHT22;23001;45.952;12.676;2022-12-07T17:13:43;6.40;99.90
37086;DHT22;23001;45.952;12.676;2022-12-07T17:16:28;6.50;99.90
37086;DHT22;23001;45.952;12.676;2022-12-07T17:18:54;6.40;99.90
37086;DHT22;23001;45.952;12.676;2022-12-07T17:21:19;6.30;99.90
37086;DHT22;23001;45.952;12.676;2022-12-07T17:23:45;6.30;99.90
37086;DHT22;23001;45.952;12.676;2022-12-07T17:26:12;6.30;99.90
37086;DHT22;23001;45.952;12.676;2022-12-07T17:28:38;6.20;99.90
37086;DHT22;23001;45.952;12.676;2022-12-07T17:31:04;6.30;99.90
37086;DHT22;23001;45.952;12.676;2022-12-07T17:33:30;6.20;99.90
37086;DHT22;23001;45.952;12.676;2022-12-07T17:35:56;6.30;99.90
37086;DHT22;23001;45.952;12.676;2022-12-07T17:38:22;6.20;99.90
37086;DHT22;23001;45.952;12.676;2022-12-07T17:40:47;6.20;99.90
37086;DHT22;23001;45.952;12.676;2022-12-07T17:43:13;6.10;99.90
37086;DHT22;23001;45.952;12.676;2022-12-07T17:45:38;6.10;99.90
37086;DHT22;23001;45.952;12.676;2022-12-07T17:48:04;6.10;99.90
37086;DHT22;23001;45.952;12.676;2022-12-07T17:50:30;6.10;99.90
37086;DHT22;23001;45.952;12.676;2022-12-07T17:53:14;6.10;99.90
37086;DHT22;23001;45.952;12.676;2022-12-07T17:55:39;6.00;99.90
37086;DHT22;23001;45.952;12.676;2022-12-07T17:58:05;6.00;99.90
37086;DHT22;23001;45.952;12.676;2022-12-07T18:00:31;6.10;99.90
37086;DHT22;23001;45.952;12.676;2022-12-07T18:03:03;6.10;99.90
37086;DHT22;23001;45.952;12.676;2022-12-07T18:05:29;6.10;99.90
37086;DHT22;23001;45.952;12.676;2022-12-07T18:07:54;6.10;99.90
37086;DHT22;23001;45.952;12.676;2022-12-07T18:10:20;6.00;99.90
37086;DHT22;23001;45.952;12.676;2022-12-07T18:12:45;6.00;99.90
37086;DHT22;23001;45.952;12.676;2022-12-07T18:15:11;6.00;99.90
37086;DHT22;23001;45.952;12.676;2022-12-07T18:17:36;5.90;99.90
37086;DHT22;23001;45.952;12.676;2022-12-07T18:20:02;5.80;99.90
37086;DHT22;23001;45.952;12.676;2022-12-07T18:22:28;5.80;99.90
37086;DHT22;23001;45.952;12.676;2022-12-07T18:24:53;5.80;99.90
37086;DHT22;23001;45.952;12.676;2022-12-07T18:27:19;5.90;99.90
37086;DHT22;23001;45.952;12.676;2022-12-07T18:29:45;5.90;99.90
37086;DHT22;23001;45.952;12.676;2022-12-07T18:32:10;6.00;99.90
37086;DHT22;23001;45.952;12.676;2022-12-07T18:34:36;6.00;99.90
37086;DHT22;23001;45.952;12.676;2022-12-07T18:37:02;5.90;99.90
37086;DHT22;23001;45.952;12.676;2022-12-07T18:39:27;6.00;99.90
37086;DHT22;23001;45.952;12.676;2022-12-07T18:41:53;6.00;99.90
37086;DHT22;23001;45.952;12.676;2022-12-07T18:44:18;6.00;99.90
37086;DHT22;23001;45.952;12.676;2022-12-07T18:46:44;6.00;99.90
37086;DHT22;23001;45.952;12.676;2022-12-07T18:49:13;5.90;99.90
37086;DHT22;23001;45.952;12.676;2022-12-07T18:51:39;5.90;99.90
37086;DHT22;23001;45.952;12.676;2022-12-07T18:54:04;5.80;99.90
37086;DHT22;23001;45.952;12.676;2022-12-07T18:56:30;5.70;99.90
37086;DHT22;23001;45.952;12.676;2022-12-07T18:58:57;5.70;99.90
37086;DHT22;23001;45.952;12.676;2022-12-07T19:01:44;5.70;99.90
37086;DHT22;23001;45.952;12.676;2022-12-07T19:04:10;5.80;99.90
37086;DHT22;23001;45.952;12.676;2022-12-07T19:06:35;5.90;99.90
37086;DHT22;23001;45.952;12.676;2022-12-07T19:09:01;5.90;99.90
37086;DHT22;23001;45.952;12.676;2022-12-07T19:11:29;6.00;99.90
37086;DHT22;23001;45.952;12.676;2022-12-07T19:14:14;6.00;99.90
37086;DHT22;23001;45.952;12.676;2022-12-07T19:16:40;6.00;99.90
37086;DHT22;23001;45.952;12.676;2022-12-07T19:19:06;5.90;99.90
37086;DHT22;23001;45.952;12.676;2022-12-07T19:21:32;5.90;99.90
37086;DHT22;23001;45.952;12.676;2022-12-07T19:23:57;5.90;99.90
37086;DHT22;23001;45.952;12.676;2022-12-07T19:26:23;5.90;99.90
37086;DHT22;23001;45.952;12.676;2022-12-07T19:28:48;5.80;99.90
37086;DHT22;23001;45.952;12.676;2022-12-07T19:31:14;5.80;99.90
37086;DHT22;23001;45.952;12.676;2022-12-07T19:33:40;5.80;99.90
37086;DHT22;23001;45.952;12.676;2022-12-07T19:36:05;5.80;99.90
37086;DHT22;23001;45.952;12.676;2022-12-07T19:38:31;5.70;99.90
37086;DHT22;23001;45.952;12.676;2022-12-07T19:41:07;5.60;99.90
37086;DHT22;23001;45.952;12.676;2022-12-07T19:43:52;5.60;99.90
37086;DHT22;23001;45.952;12.676;2022-12-07T19:46:18;5.60;99.90
37086;DHT22;23001;45.952;12.676;2022-12-07T19:48:44;5.60;99.90
37086;DHT22;23001;45.952;12.676;2022-12-07T19:51:09;5.70;99.90
37086;DHT22;23001;45.952;12.676;2022-12-07T19:53:35;5.60;99.90
37086;DHT22;23001;45.952;12.676;2022-12-07T19:56:00;5.50;99.90
37086;DHT22;23001;45.952;12.676;2022-12-07T19:58:31;5.60;99.90
37086;DHT22;23001;45.952;12.676;2022-12-07T20:01:03;5.60;99.90
37086;DHT22;23001;45.952;12.676;2022-12-07T20:03:29;5.50;99.90
37086;DHT22;23001;45.952;12.676;2022-12-07T20:05:54;5.50;99.90
37086;DHT22;23001;45.952;12.676;2022-12-07T20:08:23;5.60;99.90
37086;DHT22;23001;45.952;12.676;2022-12-07T20:10:48;5.50;99.90
37086;DHT22;23001;45.952;12.676;2022-12-07T20:13:18;5.50;99.90
37086;DHT22;23001;45.952;12.676;2022-12-07T20:15:55;5.40;99.90
37086;DHT22;23001;45.952;12.676;2022-12-07T20:18:21;5.30;99.90
37086;DHT22;23001;45.952;12.676;2022-12-07T20:20:53;5.20;99.90
37086;DHT22;23001;45.952;12.676;2022-12-07T20:23:21;5.20;99.90
37086;DHT22;23001;45.952;12.676;2022-12-07T20:25:46;5.30;99.90
37086;DHT22;23001;45.952;12.676;2022-12-07T20:28:12;5.20;99.90
37086;DHT22;23001;45.952;12.676;2022-12-07T20:30:44;5.20;99.90
37086;DHT22;23001;45.952;12.676;2022-12-07T20:33:09;5.10;99.90
37086;DHT22;23001;45.952;12.676;2022-12-07T20:35:35;5.10;99.90
37086;DHT22;23001;45.952;12.676;2022-12-07T20:38:00;5.00;99.90
37086;DHT22;23001;45.952;12.676;2022-12-07T20:40:26;5.00;99.90
37086;DHT22;23001;45.952;12.676;2022-12-07T20:42:52;5.00;99.90
37086;DHT22;23001;45.952;12.676;2022-12-07T20:45:17;5.00;99.90
37086;DHT22;23001;45.952;12.676;2022-12-07T20:47:43;5.00;99.90
37086;DHT22;23001;45.952;12.676;2022-12-07T20:50:08;4.90;99.90
37086;DHT22;23001;45.952;12.676;2022-12-07T20:52:34;4.90;99.90
37086;DHT22;23001;45.952;12.676;2022-12-07T20:54:59;4.80;99.90
37086;DHT22;23001;45.952;12.676;2022-12-07T20:57:25;4.80;99.90
37086;DHT22;23001;45.952;12.676;2022-12-07T20:59:50;4.80;99.90
37086;DHT22;23001;45.952;12.676;2022-12-07T21:02:16;4.80;99.90
37086;DHT22;23001;45.952;12.676;2022-12-07T21:04:41;4.70;99.90
37086;DHT22;23001;45.952;12.676;2022-12-07T21:07:07;4.80;99.90
37086;DHT22;23001;45.952;12.676;2022-12-07T21:09:33;4.70;99.90
37086;DHT22;23001;45.952;12.676;2022-12-07T21:11:59;4.70;99.90
37086;DHT22;23001;45.952;12.676;2022-12-07T21:14:24;4.60;99.90
37086;DHT22;23001;45.952;12.676;2022-12-07T21:16:50;4.70;99.90
37086;DHT22;23001;45.952;12.676;2022-12-07T21:19:15;4.70;99.90
37086;DHT22;23001;45.952;12.676;2022-12-07T21:21:41;4.60;99.90
37086;DHT22;23001;45.952;12.676;2022-12-07T21:24:07;4.50;99.90
37086;DHT22;23001;45.952;12.676;2022-12-07T21:26:34;4.60;99.90
37086;DHT22;23001;45.952;12.676;2022-12-07T21:29:00;4.60;99.90
37086;DHT22;23001;45.952;12.676;2022-12-07T21:31:26;4.70;99.90
37086;DHT22;23001;45.952;12.676;2022-12-07T21:33:52;4.60;99.90
37086;DHT22;23001;45.952;12.676;2022-12-07T21:36:18;4.60;99.90
37086;DHT22;23001;45.952;12.676;2022-12-07T21:38:44;4.60;99.90
37086;DHT22;23001;45.952;12.676;2022-12-07T21:41:14;4.50;99.90
37086;DHT22;23001;45.952;12.676;2022-12-07T21:43:40;4.50;99.90
37086;DHT22;23001;45.952;12.676;2022-12-07T21:46:06;4.50;99.90
37086;DHT22;23001;45.952;12.676;2022-12-07T21:48:32;4.40;99.90
37086;DHT22;23001;45.952;12.676;2022-12-07T21:53:52;4.40;99.90
37086;DHT22;23001;45.952;12.676;2022-12-07T21:58:44;4.40;99.90
37086;DHT22;23001;45.952;12.676;2022-12-07T22:03:41;4.40;99.90
37086;DHT22;23001;45.952;12.676;2022-12-07T22:06:07;4.40;99.90
37086;DHT22;23001;45.952;12.676;2022-12-07T22:08:33;4.50;99.90
37086;DHT22;23001;45.952;12.676;2022-12-07T22:11:00;4.40;99.90
37086;DHT22;23001;45.952;12.676;2022-12-07T22:13:26;4.40;99.90
37086;DHT22;23001;45.952;12.676;2022-12-07T22:16:11;4.30;99.90
37086;DHT22;23001;45.952;12.676;2022-12-07T22:18:37;4.20;99.90
37086;DHT22;23001;45.952;12.676;2022-12-07T22:21:02;4.20;99.90
37086;DHT22;23001;45.952;12.676;2022-12-07T22:23:30;4.30;99.90
37086;DHT22;23001;45.952;12.676;2022-12-07T22:25:55;4.20;99.90
37086;DHT22;23001;45.952;12.676;2022-12-07T22:28:21;4.10;99.90
37086;DHT22;23001;45.952;12.676;2022-12-07T22:30:46;4.10;99.90
37086;DHT22;23001;45.952;12.676;2022-12-07T22:33:12;4.10;99.90
37086;DHT22;23001;45.952;12.676;2022-12-07T22:35:37;4.10;99.90
37086;DHT22;23001;45.952;12.676;2022-12-07T22:38:03;4.10;99.90
37086;DHT22;23001;45.952;12.676;2022-12-07T22:40:28;4.00;99.90
37086;DHT22;23001;45.952;12.676;2022-12-07T22:42:54;4.10;99.90
37086;DHT22;23001;45.952;12.676;2022-12-07T22:45:19;4.00;99.90
37086;DHT22;23001;45.952;12.676;2022-12-07T22:47:45;3.90;99.90
37086;DHT22;23001;45.952;12.676;2022-12-07T22:50:11;3.90;99.90
37086;DHT22;23001;45.952;12.676;2022-12-07T22:52:36;3.90;99.90
37086;DHT22;23001;45.952;12.676;2022-12-07T22:55:02;3.90;99.90
37086;DHT22;23001;45.952;12.676;2022-12-07T22:57:28;3.80;99.90
37086;DHT22;23001;45.952;12.676;2022-12-07T22:59:54;3.80;99.90
37086;DHT22;23001;45.952;12.676;2022-12-07T23:02:19;3.70;99.90
37086;DHT22;23001;45.952;12.676;2022-12-07T23:04:45;3.80;99.90
37086;DHT22;23001;45.952;12.676;2022-12-07T23:07:10;3.80;99.90
37086;DHT22;23001;45.952;12.676;2022-12-07T23:09:36;3.70;99.90
37086;DHT22;23001;45.952;12.676;2022-12-07T23:12:02;3.70;99.90
37086;DHT22;23001;45.952;12.676;2022-12-07T23:14:46;3.70;99.90
37086;DHT22;23001;45.952;12.676;2022-12-07T23:17:12;3.70;99.90
37086;DHT22;23001;45.952;12.676;2022-12-07T23:19:38;3.70;99.90
37086;DHT22;23001;45.952;12.676;2022-12-07T23:22:03;3.70;99.90
37086;DHT22;23001;45.952;12.676;2022-12-07T23:24:29;3.70;99.90
37086;DHT22;23001;45.952;12.676;2022-12-07T23:26:54;3.70;99.90
37086;DHT22;23001;45.952;12.676;2022-12-07T23:29:20;3.80;99.90
37086;DHT22;23001;45.952;12.676;2022-12-07T23:31:46;3.70;99.90